createdAt,value
2023-04-28T00:01:50.827Z,5.10
2023-04-28T00:03:53.511Z,5.10
2023-04-28T00:05:56.036Z,4.40
2023-04-28T00:07:58.145Z,6.10
2023-04-28T00:10:00.163Z,5.10
2023-04-28T00:12:02.745Z,5.50
2023-04-28T00:14:05.533Z,4.80
2023-04-28T00:16:07.832Z,4.90
2023-04-28T00:18:09.878Z,4.90
2023-04-28T00:20:12.476Z,5.43
2023-04-28T00:22:15.198Z,4.83
2023-04-28T00:24:17.430Z,5.07
2023-04-28T00:26:19.589Z,4.77
2023-04-28T00:28:33.486Z,5.00
2023-04-28T00:30:36.574Z,5.17
2023-04-28T00:32:38.746Z,4.87
2023-04-28T00:34:40.835Z,5.93
2023-04-28T00:36:45.759Z,5.03
2023-04-28T00:38:47.968Z,5.20
2023-04-28T00:40:50.043Z,4.93
2023-04-28T00:42:52.048Z,5.70
2023-04-28T00:44:54.156Z,4.77
2023-04-28T00:46:56.757Z,4.80
2023-04-28T00:48:58.998Z,4.87
2023-04-28T00:51:01.081Z,5.10
2023-04-28T00:53:03.079Z,5.10
2023-04-28T00:55:05.881Z,5.10
2023-04-28T00:57:08.592Z,5.33
2023-04-28T00:59:10.759Z,4.70
2023-04-28T01:01:13.136Z,6.40
2023-04-28T01:03:15.472Z,4.73
2023-04-28T01:05:18.337Z,4.60
2023-04-28T01:07:21.543Z,5.93
2023-04-28T01:09:23.897Z,4.73
2023-04-28T01:11:27.261Z,5.77
2023-04-28T01:13:42.122Z,4.87
2023-04-28T01:15:44.327Z,5.17
2023-04-28T01:17:47.875Z,5.00
2023-04-28T01:19:50.515Z,4.93
2023-04-28T01:21:52.733Z,4.60
2023-04-28T01:23:58.047Z,5.23
2023-04-28T01:26:00.197Z,4.63
2023-04-28T01:28:02.245Z,5.30
2023-04-28T01:30:04.714Z,5.20
2023-04-28T01:32:06.918Z,5.10
2023-04-28T01:34:09.614Z,5.27
2023-04-28T01:36:11.907Z,4.83
2023-04-28T01:38:13.980Z,4.80
2023-04-28T01:40:16.268Z,4.93
2023-04-28T01:42:18.318Z,4.97
2023-04-28T01:44:20.525Z,5.70
2023-04-28T01:46:24.017Z,6.07
2023-04-28T01:48:26.041Z,5.50
2023-04-28T01:50:28.103Z,5.23
2023-04-28T01:52:30.331Z,5.80
2023-04-28T01:54:32.597Z,5.33
2023-04-28T01:56:34.688Z,5.30
2023-04-28T01:58:36.957Z,4.93
2023-04-28T02:00:40.923Z,5.93
2023-04-28T02:02:43.038Z,5.73
2023-04-28T02:04:45.079Z,4.80
2023-04-28T02:06:47.120Z,5.60
2023-04-28T02:08:49.148Z,6.00
2023-04-28T02:10:51.109Z,5.60
2023-04-28T02:12:53.167Z,5.50
2023-04-28T02:14:55.126Z,5.57
2023-04-28T02:16:57.211Z,5.57
2023-04-28T02:18:59.317Z,5.67
2023-04-28T02:21:11.593Z,5.50
2023-04-28T02:23:13.635Z,5.60
2023-04-28T02:25:15.767Z,6.20
2023-04-28T02:27:18.218Z,4.67
2023-04-28T02:29:20.369Z,5.27
2023-04-28T02:31:22.463Z,5.60
2023-04-28T02:33:24.510Z,6.00
2023-04-28T02:35:27.390Z,5.80
2023-04-28T02:37:30.073Z,5.60
2023-04-28T02:39:33.084Z,5.00
2023-04-28T02:41:35.220Z,5.73
2023-04-28T02:43:37.806Z,5.83
2023-04-28T02:45:40.498Z,5.57
2023-04-28T02:47:42.984Z,5.80
2023-04-28T02:49:44.905Z,5.63
2023-04-28T02:51:46.982Z,6.37
2023-04-28T02:53:48.999Z,6.37
2023-04-28T02:55:51.043Z,6.50
2023-04-28T02:57:53.184Z,5.57
2023-04-28T02:59:55.110Z,6.07
2023-04-28T03:01:57.619Z,5.70
2023-04-28T03:04:00.375Z,6.00
2023-04-28T03:06:02.546Z,5.77
2023-04-28T03:08:05.283Z,6.33
2023-04-28T03:10:07.900Z,5.37
2023-04-28T03:12:10.386Z,5.90
2023-04-28T03:14:12.421Z,5.90
2023-04-28T03:16:14.555Z,6.00
2023-04-28T03:18:17.410Z,5.63
2023-04-28T03:20:19.960Z,5.00
2023-04-28T03:22:22.060Z,6.90
2023-04-28T03:24:24.380Z,5.50
2023-04-28T03:26:26.433Z,6.43
2023-04-28T03:28:29.379Z,5.80
2023-04-28T03:30:34.476Z,6.80
2023-04-28T03:32:36.781Z,7.00
2023-04-28T03:34:39.112Z,5.90
2023-04-28T03:36:41.259Z,6.30
2023-04-28T03:38:51.484Z,5.97
2023-04-28T03:40:54.895Z,6.30
2023-04-28T03:43:19.453Z,5.83
2023-04-28T03:45:41.144Z,6.47
2023-04-28T03:47:44.198Z,6.70
2023-04-28T03:49:46.527Z,5.60
2023-04-28T03:51:50.070Z,5.73
2023-04-28T03:53:52.211Z,6.53
2023-04-28T03:55:54.575Z,6.63
2023-04-28T03:57:56.630Z,6.50
2023-04-28T03:59:58.665Z,6.43
2023-04-28T04:02:00.784Z,6.30
2023-04-28T04:04:03.140Z,7.10
2023-04-28T04:06:05.871Z,6.50
2023-04-28T04:08:07.856Z,6.00
2023-04-28T04:10:10.060Z,7.30
2023-04-28T04:12:13.817Z,6.47
2023-04-28T04:14:17.177Z,7.00
2023-04-28T04:16:19.725Z,7.80
2023-04-28T04:18:21.959Z,6.73
2023-04-28T04:20:43.896Z,7.10
2023-04-28T04:22:46.278Z,7.00
2023-04-28T04:24:49.037Z,6.60
2023-04-28T04:26:51.142Z,6.70
2023-04-28T04:29:12.156Z,8.10
2023-04-28T04:31:15.268Z,7.20
2023-04-28T04:33:18.577Z,7.00
2023-04-28T04:35:21.052Z,7.70
2023-04-28T04:37:23.554Z,6.80
2023-04-28T04:39:31.453Z,6.50
2023-04-28T04:41:33.486Z,8.00
2023-04-28T04:44:01.998Z,7.67
2023-04-28T04:46:11.565Z,7.60
2023-04-28T04:48:14.437Z,7.60
2023-04-28T04:50:16.767Z,7.47
2023-04-28T04:52:19.048Z,7.60
2023-04-28T04:54:21.031Z,7.60
2023-04-28T04:56:23.258Z,7.20
2023-04-28T04:58:25.610Z,7.07
2023-04-28T05:00:30.479Z,8.20
2023-04-28T05:02:34.337Z,7.13
2023-04-28T05:04:38.456Z,7.03
2023-04-28T05:06:40.720Z,7.63
2023-04-28T05:08:42.779Z,7.27
2023-04-28T05:10:45.050Z,7.27
2023-04-28T05:12:48.980Z,8.00
2023-04-28T05:14:52.800Z,8.07
2023-04-28T05:16:56.994Z,7.27
2023-04-28T05:19:01.720Z,7.07
2023-04-28T05:21:04.021Z,7.47
2023-04-28T05:23:06.832Z,7.00
2023-04-28T05:25:09.287Z,7.67
2023-04-28T05:27:11.419Z,7.27
2023-04-28T05:29:13.509Z,7.87
2023-04-28T05:31:16.816Z,7.10
2023-04-28T05:33:19.291Z,7.40
2023-04-28T05:35:22.552Z,6.80
2023-04-28T05:37:25.047Z,7.07
2023-04-28T05:39:27.070Z,7.43
2023-04-28T05:41:31.077Z,7.33
2023-04-28T05:43:33.148Z,7.27
2023-04-28T05:45:35.433Z,7.47
2023-04-28T05:47:38.214Z,7.87
2023-04-28T05:49:40.385Z,6.90
2023-04-28T05:51:42.752Z,7.00
2023-04-28T05:53:48.742Z,6.97
2023-04-28T05:55:51.008Z,7.10
2023-04-28T05:57:54.005Z,6.97
2023-04-28T05:59:57.104Z,6.67
2023-04-28T06:01:59.743Z,6.37
2023-04-28T06:04:01.964Z,6.87
2023-04-28T06:06:07.773Z,7.50
2023-04-28T06:08:11.902Z,6.93
2023-04-28T06:10:14.023Z,6.53
2023-04-28T06:12:17.430Z,6.93
2023-04-28T06:14:19.689Z,7.47
2023-04-28T06:16:23.508Z,7.00
2023-04-28T06:18:27.089Z,6.90
2023-04-28T06:20:29.116Z,6.63
2023-04-28T06:22:31.180Z,6.53
2023-04-28T06:24:33.723Z,6.47
2023-04-28T06:26:37.681Z,6.30
2023-04-28T06:28:40.242Z,6.90
2023-04-28T06:30:43.156Z,5.93
2023-04-28T06:32:46.308Z,6.10
2023-04-28T06:34:48.454Z,6.77
2023-04-28T06:36:50.633Z,6.47
2023-04-28T06:38:52.756Z,6.90
2023-04-28T06:40:54.851Z,6.07
2023-04-28T06:42:57.055Z,5.57
2023-04-28T06:45:06.653Z,6.13
2023-04-28T06:47:11.872Z,6.00
2023-04-28T06:49:14.572Z,7.20
2023-04-28T06:51:17.578Z,6.20
2023-04-28T06:53:19.680Z,6.13
2023-04-28T06:55:21.919Z,5.93
2023-04-28T06:57:23.964Z,5.80
2023-04-28T06:59:26.484Z,5.70
2023-04-28T07:01:30.221Z,6.43
2023-04-28T07:03:32.418Z,6.00
2023-04-28T07:05:34.629Z,5.43
2023-04-28T07:07:38.699Z,5.53
2023-04-28T07:09:40.696Z,6.63
2023-04-28T07:11:44.365Z,5.97
2023-04-28T07:13:49.374Z,6.27
2023-04-28T07:15:51.527Z,6.50
2023-04-28T07:17:53.822Z,6.40
2023-04-28T07:19:55.939Z,6.30
2023-04-28T07:21:57.950Z,6.00
2023-04-28T07:24:00.015Z,6.00
2023-04-28T07:26:02.045Z,6.87
2023-04-28T07:28:04.207Z,6.40
2023-04-28T07:30:18.662Z,6.33
2023-04-28T07:32:28.945Z,10.00
2023-04-28T07:34:31.384Z,95.30
2023-04-28T07:36:33.357Z,11.33
2023-04-28T07:38:36.117Z,7.63
2023-04-28T07:40:38.184Z,6.70
2023-04-28T07:42:40.335Z,6.60
2023-04-28T07:44:42.393Z,7.57
2023-04-28T07:46:44.377Z,8.43
2023-04-28T07:48:46.413Z,7.17
2023-04-28T07:50:48.508Z,6.90
2023-04-28T07:52:50.834Z,6.93
2023-04-28T07:54:53.172Z,6.50
2023-04-28T07:56:57.935Z,7.17
2023-04-28T07:59:00.124Z,6.37
2023-04-28T08:01:02.455Z,6.47
2023-04-28T08:03:04.889Z,6.43
2023-04-28T08:05:08.053Z,6.30
2023-04-28T08:07:10.970Z,6.53
2023-04-28T08:09:13.164Z,7.10
2023-04-28T08:11:15.406Z,7.30
2023-04-28T08:13:17.728Z,6.57
2023-04-28T08:15:19.680Z,6.87
2023-04-28T08:17:21.665Z,6.70
2023-04-28T08:19:24.248Z,7.57
2023-04-28T08:21:27.019Z,14.53
2023-04-28T08:23:31.194Z,7.47
2023-04-28T08:25:33.309Z,7.27
2023-04-28T08:27:37.999Z,5.83
2023-04-28T08:29:40.468Z,7.33
2023-04-28T08:31:42.659Z,6.90
2023-04-28T08:33:48.486Z,6.13
2023-04-28T08:35:51.142Z,7.00
2023-04-28T08:37:53.540Z,7.77
2023-04-28T08:40:02.184Z,7.00
2023-04-28T08:42:04.848Z,7.60
2023-04-28T08:44:10.207Z,7.20
2023-04-28T08:46:14.733Z,6.60
2023-04-28T08:48:20.762Z,6.40
2023-04-28T08:50:23.328Z,7.07
2023-04-28T08:52:26.353Z,6.23
2023-04-28T08:54:31.362Z,6.40
2023-04-28T08:56:37.678Z,6.60
2023-04-28T08:58:39.894Z,6.30
2023-04-28T09:00:41.930Z,5.97
2023-04-28T09:02:44.228Z,6.90
2023-04-28T09:04:49.561Z,6.10
2023-04-28T09:06:51.898Z,5.80
2023-04-28T09:08:54.199Z,4.93
2023-04-28T09:11:09.812Z,7.70
2023-04-28T09:13:25.465Z,6.00
2023-04-28T09:15:37.395Z,6.03
2023-04-28T09:17:53.107Z,5.90
2023-04-28T09:19:55.458Z,5.47
2023-04-28T09:21:57.947Z,6.30
2023-04-28T09:24:00.044Z,4.90
2023-04-28T09:26:07.652Z,5.37
2023-04-28T09:28:22.957Z,6.03
2023-04-28T09:30:41.110Z,5.73
2023-04-28T09:32:43.836Z,5.60
2023-04-28T09:34:47.920Z,6.00
2023-04-28T09:36:50.065Z,5.30
2023-04-28T09:38:52.115Z,5.63
2023-04-28T09:41:01.605Z,6.13
2023-04-28T09:43:11.876Z,6.47
2023-04-28T09:45:21.347Z,5.80
2023-04-28T09:47:23.665Z,5.83
2023-04-28T09:49:25.878Z,5.70
2023-04-28T09:51:28.140Z,5.40
2023-04-28T09:53:31.023Z,5.97
2023-04-28T09:55:34.998Z,5.90
2023-04-28T09:57:37.282Z,5.80
2023-04-28T09:59:39.756Z,6.43
2023-04-28T10:01:43.194Z,6.50
2023-04-28T10:03:46.453Z,5.53
2023-04-28T10:05:49.568Z,5.63
2023-04-28T10:07:54.130Z,5.50
2023-04-28T10:09:56.808Z,6.53
2023-04-28T10:11:59.828Z,6.93
2023-04-28T10:14:02.476Z,7.30
2023-04-28T10:16:05.106Z,6.90
2023-04-28T10:18:07.829Z,7.30
2023-04-28T10:20:11.389Z,7.20
2023-04-28T10:22:51.063Z,7.23
2023-04-28T10:25:08.471Z,7.10
2023-04-28T10:27:11.292Z,7.00
2023-04-28T10:29:13.535Z,7.17
2023-04-28T10:31:23.363Z,7.70
2023-04-28T10:33:26.903Z,7.50
2023-04-28T10:35:32.612Z,7.80
2023-04-28T10:38:22.904Z,7.90
2023-04-28T10:40:34.631Z,7.50
2023-04-28T10:42:53.871Z,6.90
2023-04-28T10:44:56.096Z,8.10
2023-04-28T10:47:06.955Z,7.77
2023-04-28T10:49:09.182Z,8.40
2023-04-28T10:51:12.905Z,6.87
2023-04-28T10:53:15.226Z,7.30
2023-04-28T10:55:27.463Z,7.90
2023-04-28T10:57:29.705Z,8.07
2023-04-28T10:59:32.141Z,7.40
2023-04-28T11:01:35.183Z,8.30
2023-04-28T11:04:07.594Z,8.77
2023-04-28T11:06:26.812Z,8.83
2023-04-28T11:08:33.252Z,7.77
2023-04-28T11:11:10.417Z,8.63
2023-04-28T11:13:31.773Z,8.87
2023-04-28T11:15:34.000Z,9.17
2023-04-28T11:17:41.733Z,9.30
2023-04-28T11:19:46.176Z,9.60
2023-04-28T11:21:49.162Z,9.50
2023-04-28T11:23:52.434Z,9.37
2023-04-28T11:25:55.782Z,9.43
2023-04-28T11:28:04.521Z,9.50
2023-04-28T11:30:23.006Z,9.93
2023-04-28T11:32:34.329Z,9.37
2023-04-28T11:34:37.766Z,10.30
2023-04-28T11:36:41.060Z,10.50
2023-04-28T11:38:44.450Z,9.63
2023-04-28T11:40:57.353Z,10.30
2023-04-28T11:43:01.252Z,9.90
2023-04-28T11:45:04.699Z,9.17
2023-04-28T11:47:07.564Z,9.90
2023-04-28T11:49:09.963Z,9.90
2023-04-28T11:51:32.440Z,9.13
2023-04-28T11:53:44.284Z,10.13
2023-04-28T11:55:46.569Z,10.23
2023-04-28T11:57:48.761Z,10.70
2023-04-28T11:59:51.355Z,10.00
2023-04-28T12:02:01.734Z,10.63
2023-04-28T12:04:04.428Z,10.70
2023-04-28T12:06:06.803Z,10.43
2023-04-28T12:08:08.934Z,9.17
2023-04-28T12:10:13.221Z,9.93
2023-04-28T12:12:40.134Z,10.37
2023-04-28T12:14:56.057Z,10.37
2023-04-28T12:16:58.563Z,12.17
2023-04-28T12:19:00.997Z,10.13
2023-04-28T12:21:03.777Z,11.93
2023-04-28T12:23:06.479Z,9.67
2023-04-28T12:25:10.976Z,10.83
2023-04-28T12:27:22.117Z,11.50
2023-04-28T12:29:38.250Z,10.70
2023-04-28T12:31:50.690Z,10.43
2023-04-28T12:33:53.573Z,10.03
2023-04-28T12:35:59.131Z,11.03
2023-04-28T12:38:01.310Z,10.87
2023-04-28T12:40:04.762Z,11.27
2023-04-28T12:42:07.380Z,11.33
2023-04-28T12:44:09.583Z,12.37
2023-04-28T12:46:14.850Z,11.40
2023-04-28T12:48:17.044Z,13.00
2023-04-28T12:50:19.432Z,13.17
2023-04-28T12:52:22.417Z,12.70
2023-04-28T12:54:24.623Z,13.10
2023-04-28T12:56:27.328Z,11.87
2023-04-28T12:58:30.396Z,12.17
2023-04-28T13:00:32.621Z,12.93
2023-04-28T13:02:35.277Z,14.43
2023-04-28T13:04:37.973Z,13.90
2023-04-28T13:06:44.103Z,12.67
2023-04-28T13:08:46.388Z,12.70
2023-04-28T13:10:48.648Z,13.70
2023-04-28T13:12:50.865Z,14.13
2023-04-28T13:14:53.045Z,13.07
2023-04-28T13:16:55.306Z,12.70
2023-04-28T13:18:57.948Z,13.40
2023-04-28T13:21:00.140Z,13.47
2023-04-28T13:23:02.410Z,13.63
2023-04-28T13:25:04.915Z,12.43
2023-04-28T13:27:10.041Z,13.13
2023-04-28T13:29:12.798Z,12.30
2023-04-28T13:31:15.173Z,14.20
2023-04-28T13:33:17.535Z,13.57
2023-04-28T13:35:20.463Z,12.33
2023-04-28T13:37:22.680Z,12.30
2023-04-28T13:39:24.986Z,14.20
2023-04-28T13:41:27.710Z,13.40
2023-04-28T13:43:31.198Z,12.30
2023-04-28T13:45:33.469Z,12.47
2023-04-28T13:47:35.941Z,13.73
2023-04-28T13:49:40.183Z,13.10
2023-04-28T13:51:42.783Z,12.77
2023-04-28T13:53:44.998Z,12.70
2023-04-28T13:55:50.166Z,12.27
2023-04-28T13:57:52.373Z,13.10
2023-04-28T13:59:54.608Z,13.60
2023-04-28T14:01:56.752Z,13.67
2023-04-28T14:03:59.142Z,12.07
2023-04-28T14:06:01.815Z,11.67
2023-04-28T14:08:04.034Z,12.33
2023-04-28T14:10:06.535Z,12.30
2023-04-28T14:12:09.023Z,12.57
2023-04-28T14:14:11.240Z,12.33
2023-04-28T14:16:13.606Z,12.90
2023-04-28T14:18:16.300Z,12.30
2023-04-28T14:20:18.530Z,12.00
2023-04-28T14:22:20.784Z,12.03
2023-04-28T14:24:23.761Z,10.80
2023-04-28T14:26:26.146Z,11.80
2023-04-28T14:28:28.423Z,10.83
2023-04-28T14:30:31.032Z,12.10
2023-04-28T14:32:33.191Z,10.83
2023-04-28T14:34:35.470Z,11.30
2023-04-28T14:36:38.396Z,13.00
2023-04-28T14:38:40.695Z,12.03
2023-04-28T14:40:43.207Z,11.47
2023-04-28T14:42:45.657Z,11.03
2023-04-28T14:44:48.126Z,11.43
2023-04-28T14:46:50.718Z,10.80
2023-04-28T14:48:53.724Z,10.17
2023-04-28T14:50:55.876Z,11.23
2023-04-28T14:53:05.212Z,10.77
2023-04-28T14:55:07.844Z,12.43
2023-04-28T14:57:09.976Z,11.20
2023-04-28T14:59:12.127Z,11.70
2023-04-28T15:01:14.373Z,11.30
2023-04-28T15:03:16.687Z,11.60
2023-04-28T15:05:19.466Z,11.47
2023-04-28T15:07:22.167Z,11.27
2023-04-28T15:09:24.386Z,10.80
2023-04-28T15:11:26.775Z,11.80
2023-04-28T15:13:29.043Z,11.10
2023-04-28T15:15:31.325Z,11.30
2023-04-28T15:17:34.284Z,11.13
2023-04-28T15:19:36.961Z,11.43
2023-04-28T15:21:40.848Z,11.90
2023-04-28T15:23:43.110Z,12.00
2023-04-28T15:25:45.442Z,13.53
2023-04-28T15:27:47.896Z,12.30
2023-04-28T15:29:50.727Z,13.27
2023-04-28T15:31:53.738Z,13.53
2023-04-28T15:33:56.720Z,14.10
2023-04-28T15:35:58.858Z,12.93
2023-04-28T15:38:01.952Z,13.07
2023-04-28T15:40:05.362Z,13.37
2023-04-28T15:42:07.497Z,12.63
2023-04-28T15:44:10.556Z,13.23
2023-04-28T15:46:14.846Z,12.37
2023-04-28T15:48:17.485Z,13.60
2023-04-28T15:50:20.762Z,13.17
2023-04-28T15:52:23.789Z,13.03
2023-04-28T15:54:28.575Z,12.63
2023-04-28T15:56:31.158Z,12.20
2023-04-28T15:58:33.395Z,13.50
2023-04-28T16:00:35.864Z,14.00
2023-04-28T16:02:39.321Z,14.17
2023-04-28T16:04:41.855Z,13.40
2023-04-28T16:06:44.126Z,12.60
2023-04-28T16:08:46.542Z,14.70
2023-04-28T16:10:48.721Z,14.60
2023-04-28T16:12:50.965Z,14.97
2023-04-28T16:14:53.309Z,14.20
2023-04-28T16:16:55.808Z,15.37
2023-04-28T16:18:58.700Z,14.67
2023-04-28T16:21:01.364Z,14.03
2023-04-28T16:23:06.120Z,14.97
2023-04-28T16:25:09.361Z,16.07
2023-04-28T16:27:12.778Z,16.87
2023-04-28T16:29:14.932Z,16.13
2023-04-28T16:31:17.556Z,15.90
2023-04-28T16:33:19.708Z,16.87
2023-04-28T16:35:22.139Z,16.07
2023-04-28T16:37:24.322Z,17.70
2023-04-28T16:39:26.464Z,19.07
2023-04-28T16:41:28.686Z,18.40
2023-04-28T16:43:32.752Z,20.40
2023-04-28T16:45:34.966Z,19.93
2023-04-28T16:47:38.196Z,18.50
2023-04-28T16:49:40.360Z,17.63
2023-04-28T16:51:55.385Z,18.57
2023-04-28T16:53:57.658Z,18.07
2023-04-28T16:55:59.883Z,20.27
2023-04-28T16:58:02.735Z,18.17
2023-04-28T17:00:06.280Z,18.43
2023-04-28T17:02:08.691Z,16.80
2023-04-28T17:04:11.550Z,18.47
2023-04-28T17:06:14.312Z,18.97
2023-04-28T17:08:16.532Z,17.17
2023-04-28T17:10:18.860Z,16.13
2023-04-28T17:12:23.290Z,17.77
2023-04-28T17:14:25.978Z,18.07
2023-04-28T17:16:31.899Z,19.10
2023-04-28T17:18:34.035Z,19.87
2023-04-28T17:20:36.381Z,21.53
2023-04-28T17:22:38.537Z,20.93
2023-04-28T17:24:40.721Z,20.53
2023-04-28T17:26:43.036Z,19.83
2023-04-28T17:28:45.532Z,21.40
2023-04-28T17:30:47.982Z,22.90
2023-04-28T17:32:50.142Z,21.67
2023-04-28T17:34:52.747Z,21.70
2023-04-28T17:36:55.421Z,20.73
2023-04-28T17:38:57.835Z,20.60
2023-04-28T17:40:59.977Z,19.10
2023-04-28T17:43:02.761Z,20.20
2023-04-28T17:45:06.009Z,20.17
2023-04-28T17:47:08.180Z,19.80
2023-04-28T17:49:11.002Z,19.70
2023-04-28T17:51:13.258Z,18.10
2023-04-28T17:53:15.477Z,17.90
2023-04-28T17:55:18.797Z,18.37
2023-04-28T17:57:21.358Z,19.07
2023-04-28T17:59:23.643Z,19.13
2023-04-28T18:01:25.836Z,19.70
2023-04-28T18:03:28.180Z,20.73
2023-04-28T18:05:31.332Z,19.17
2023-04-28T18:07:33.482Z,21.47
2023-04-28T18:09:35.714Z,19.27
2023-04-28T18:11:38.656Z,19.53
2023-04-28T18:13:40.798Z,21.33
2023-04-28T18:15:43.833Z,18.80
2023-04-28T18:17:46.198Z,21.30
2023-04-28T18:19:52.226Z,21.60
2023-04-28T18:21:58.151Z,20.40
2023-04-28T18:24:00.305Z,20.80
2023-04-28T18:26:02.969Z,19.77
2023-04-28T18:28:05.650Z,20.87
2023-04-28T18:30:08.543Z,19.57
2023-04-28T18:32:13.589Z,18.53
2023-04-28T18:34:17.380Z,16.70
2023-04-28T18:36:19.598Z,15.93
2023-04-28T18:38:23.906Z,17.23
2023-04-28T18:40:26.236Z,17.00
2023-04-28T18:42:28.469Z,17.37
2023-04-28T18:44:31.234Z,16.10
2023-04-28T18:46:33.733Z,17.63
2023-04-28T18:48:36.650Z,17.20
2023-04-28T18:50:38.919Z,17.20
2023-04-28T18:52:41.065Z,16.50
2023-04-28T18:54:43.374Z,15.80
2023-04-28T18:56:46.150Z,16.23
2023-04-28T18:58:48.396Z,14.80
2023-04-28T19:00:51.323Z,16.23
2023-04-28T19:02:53.603Z,15.30
2023-04-28T19:04:57.061Z,14.47
2023-04-28T19:06:59.641Z,14.40
2023-04-28T19:09:02.309Z,15.33
2023-04-28T19:11:09.317Z,13.33
2023-04-28T19:13:11.648Z,14.57
2023-04-28T19:15:13.922Z,14.30
2023-04-28T19:17:16.091Z,14.23
2023-04-28T19:19:18.265Z,15.07
2023-04-28T19:21:20.663Z,15.10
2023-04-28T19:23:22.870Z,15.40
2023-04-28T19:25:25.137Z,23.40
2023-04-28T19:27:32.262Z,20.60
2023-04-28T19:29:34.397Z,19.93
2023-04-28T19:31:36.523Z,18.27
2023-04-28T19:33:38.695Z,20.83
2023-04-28T19:35:40.885Z,20.40
2023-04-28T19:37:43.285Z,21.30
2023-04-28T19:39:45.615Z,19.17
2023-04-28T19:41:48.152Z,19.40
2023-04-28T19:43:50.244Z,19.00
2023-04-28T19:45:52.671Z,19.80
2023-04-28T19:47:55.596Z,17.30
2023-04-28T19:49:57.777Z,19.57
2023-04-28T19:52:00.297Z,18.53
2023-04-28T19:54:02.500Z,18.80
2023-04-28T19:56:05.707Z,16.67
2023-04-28T19:58:09.824Z,17.90
2023-04-28T20:00:12.649Z,18.17
2023-04-28T20:02:16.106Z,18.70
2023-04-28T20:04:19.188Z,19.67
2023-04-28T20:06:21.527Z,20.07
2023-04-28T20:08:25.633Z,19.83
2023-04-28T20:10:28.207Z,21.67
2023-04-28T20:12:30.478Z,20.30
2023-04-28T20:14:33.158Z,25.37
2023-04-28T20:16:35.370Z,21.83
2023-04-28T20:18:37.609Z,22.47
2023-04-28T20:20:39.769Z,23.67
2023-04-28T20:22:42.081Z,26.80
2023-04-28T20:24:44.500Z,27.13
2023-04-28T20:26:46.690Z,28.07
2023-04-28T20:28:49.523Z,25.80
2023-04-28T20:30:51.818Z,24.63
2023-04-28T20:32:54.336Z,24.00
2023-04-28T20:34:56.473Z,21.50
2023-04-28T20:37:06.494Z,21.10
2023-04-28T20:39:11.219Z,20.10
2023-04-28T20:41:13.636Z,19.77
2023-04-28T20:43:15.803Z,19.00
2023-04-28T20:45:18.662Z,21.57
2023-04-28T20:47:20.769Z,20.80
2023-04-28T20:49:23.973Z,22.60
2023-04-28T20:51:26.138Z,20.30
2023-04-28T20:53:28.423Z,21.70
2023-04-28T20:55:30.734Z,21.60
2023-04-28T20:57:32.922Z,25.80
2023-04-28T20:59:35.699Z,26.73
2023-04-28T21:01:37.935Z,26.00
2023-04-28T21:03:41.338Z,24.87
2023-04-28T21:05:45.689Z,24.50
2023-04-28T21:07:47.836Z,23.67
2023-04-28T21:09:51.031Z,23.60
2023-04-28T21:11:53.332Z,21.90
2023-04-28T21:13:55.529Z,23.57
2023-04-28T21:15:57.734Z,20.87
2023-04-28T21:18:00.020Z,20.43
2023-04-28T21:20:02.296Z,21.03
2023-04-28T21:22:04.552Z,20.03
2023-04-28T21:24:08.051Z,20.13
2023-04-28T21:26:10.614Z,21.33
2023-04-28T21:28:12.949Z,17.87
2023-04-28T21:30:15.497Z,19.70
2023-04-28T21:32:17.970Z,21.70
2023-04-28T21:34:20.308Z,19.47
2023-04-28T21:36:22.475Z,19.80
2023-04-28T21:38:25.228Z,19.37
2023-04-28T21:40:27.346Z,19.30
2023-04-28T21:42:31.800Z,17.50
2023-04-28T21:44:34.083Z,17.50
2023-04-28T21:46:36.583Z,18.27
2023-04-28T21:48:38.965Z,18.03
2023-04-28T21:50:41.162Z,19.90
2023-04-28T21:52:43.264Z,20.53
2023-04-28T21:54:45.381Z,21.20
2023-04-28T21:56:47.715Z,21.23
2023-04-28T21:58:49.851Z,19.97
2023-04-28T22:00:52.415Z,20.70
2023-04-28T22:02:56.442Z,19.83
2023-04-28T22:04:58.702Z,21.20
2023-04-28T22:07:01.215Z,20.93
2023-04-28T22:09:03.918Z,20.90
2023-04-28T22:11:06.918Z,18.77
2023-04-28T22:13:09.160Z,18.10
2023-04-28T22:15:11.665Z,19.27
2023-04-28T22:17:13.893Z,18.77
2023-04-28T22:19:17.233Z,19.33
2023-04-28T22:21:19.516Z,18.00
2023-04-28T22:23:21.585Z,18.30
2023-04-28T22:25:23.776Z,19.23
2023-04-28T22:27:25.999Z,17.83
2023-04-28T22:29:28.658Z,18.47
2023-04-28T22:31:30.889Z,18.23
2023-04-28T22:33:33.469Z,19.50
2023-04-28T22:35:35.743Z,19.10
2023-04-28T22:37:38.519Z,19.70
2023-04-28T22:39:40.910Z,20.47
2023-04-28T22:41:42.929Z,19.37
2023-04-28T22:43:44.884Z,18.10
2023-04-28T22:45:46.879Z,19.80
2023-04-28T22:47:48.889Z,19.53
2023-04-28T22:49:51.017Z,21.70
2023-04-28T22:51:53.254Z,21.20
2023-04-28T22:53:55.578Z,21.97
2023-04-28T22:55:58.318Z,20.20
2023-04-28T22:58:00.301Z,21.47
2023-04-28T23:00:04.212Z,22.07
2023-04-28T23:02:07.831Z,20.60
2023-04-28T23:04:10.037Z,20.57
2023-04-28T23:06:12.207Z,21.00
2023-04-28T23:08:14.142Z,20.70
2023-04-28T23:10:16.278Z,19.50
2023-04-28T23:12:18.337Z,19.73
2023-04-28T23:14:20.477Z,19.13
2023-04-28T23:16:23.038Z,19.53
2023-04-28T23:18:25.039Z,20.23
2023-04-28T23:20:26.960Z,20.20
2023-04-28T23:22:29.075Z,21.27
2023-04-28T23:24:31.384Z,19.97
2023-04-28T23:26:33.832Z,19.07
2023-04-28T23:28:35.823Z,20.80
2023-04-28T23:30:37.931Z,21.37
2023-04-28T23:32:40.144Z,21.20
2023-04-28T23:34:42.786Z,21.57
2023-04-28T23:36:46.226Z,20.93
2023-04-28T23:38:48.208Z,22.00
2023-04-28T23:40:50.183Z,24.23
2023-04-28T23:42:52.432Z,24.73
2023-04-28T23:44:54.388Z,28.30
2023-04-28T23:46:56.423Z,28.23
2023-04-28T23:48:58.587Z,32.10
2023-04-28T23:51:00.842Z,32.67
2023-04-28T23:53:02.820Z,32.77
2023-04-28T23:55:05.481Z,35.17
2023-04-28T23:57:07.745Z,33.30
2023-04-28T23:59:09.734Z,34.60
